Portada
METAR-TAF:

METAR-TAF

Aeroports :

Funafuti, Tuvalu

latitud: 08-31S, longitud: 179-13E, altitud: 1 m

Observació

L'informe es va fer fa 41 minuts, a les 21:00 UTC
Vent 5 kt del Est/Nord-Est
Temperatura 30°C
Humitat 75%
Pressió 1013 hPa
Visibilitat 10 km o més
Núvols disperses a una alçada de 1800 ft, Cumulus congestus.
Cel ennuvolat a una alçada de 10000 ft

METAR: NGFU 262100Z 06005KT 9999 SCT018TCU BKN100 30/25 Q1013

Hora: 09:41 (21:41 UTC)

Pronòstic

L'informe es va fer fa 4 hores i 39 minuts, a les 17:02 UTC
Pronòstic vàlid del 26 a les 18 UTC al 27 a les 18 UTC
Vent 9 kt del Est
Visibilitat 10 km o més
Núvols disperses a una alçada de 1800 ft
Probabilitat 40% :
Temporalment
l' 26 a les 18 UTC al 27 a les 18 UTC
Visibilitat: 3000 m
Cel ennuvolat a una alçada de 1500 ft
Escasses núvols a una alçada de 1700 ft, Cumulonimbus.
tempesta, pluja

TAF: NGFU 261702Z 2618/2718 10009KT 9999 SCT018 PROB40 TEMPO 2618/2718 3000 TSRA BKN015 FEW017CB

Observacions i pronòstics meteorològics de més de 4000 aeroports (METAR i TAF).

Les estacions disponibles són els punts grocs i vermells al mapa.

Posi el ratolí al punt desitjat per veure el nom de l'estació.

Feu clic per veure les observacions i els pronòstics meteorològics.

Per canviar el mapa: feu clic els botons verds amb una creu de color negre per apropar; al botó verd amb un guió per allunyar la imatge; o en les fletxes verdes per a mapes adjacents.


METAR-TAF: